createdAt,value
2023-01-20T00:01:40.907Z,-2.08
2023-01-20T00:04:07.570Z,-2.12
2023-01-20T00:06:34.219Z,-2.15
2023-01-20T00:09:02.544Z,-2.35
2023-01-20T00:11:29.780Z,-2.59
2023-01-20T00:13:58.411Z,-2.51
2023-01-20T00:16:25.900Z,-2.50
2023-01-20T00:18:52.663Z,-2.52
2023-01-20T00:21:19.873Z,-2.33
2023-01-20T00:23:47.933Z,-2.47
2023-01-20T00:26:17.047Z,-2.33
2023-01-20T00:28:44.401Z,-2.12
2023-01-20T00:31:12.108Z,-1.99
2023-01-20T00:33:38.984Z,-2.03
2023-01-20T00:36:06.158Z,-2.06
2023-01-20T00:38:32.780Z,-2.16
2023-01-20T00:40:59.556Z,-1.95
2023-01-20T00:43:26.179Z,-2.23
2023-01-20T00:45:52.815Z,-2.25
2023-01-20T00:48:19.496Z,-2.15
2023-01-20T00:50:46.082Z,-2.07
2023-01-20T00:53:12.675Z,-2.16
2023-01-20T00:55:39.610Z,-2.14
2023-01-20T00:58:06.307Z,-2.11
2023-01-20T01:00:32.953Z,-2.34
2023-01-20T01:02:59.644Z,-2.41
2023-01-20T01:05:26.255Z,-2.41
2023-01-20T01:07:52.900Z,-2.50
2023-01-20T01:10:19.497Z,-2.57
2023-01-20T01:12:46.162Z,-2.51
2023-01-20T01:15:13.053Z,-2.45
2023-01-20T01:17:39.904Z,-2.54
2023-01-20T01:20:06.840Z,-2.44
2023-01-20T01:22:33.525Z,-2.30
2023-01-20T01:25:00.175Z,-2.39
2023-01-20T01:27:28.687Z,-2.35
2023-01-20T01:29:55.837Z,-2.29
2023-01-20T01:32:23.466Z,-2.04
2023-01-20T01:34:50.175Z,-1.91
2023-01-20T01:37:16.804Z,-1.85
2023-01-20T01:39:43.393Z,-1.77
2023-01-20T01:42:14.649Z,-1.73
2023-01-20T01:45:12.512Z,-1.69
2023-01-20T01:47:49.658Z,-1.67
2023-01-20T01:50:20.989Z,-1.78
2023-01-20T01:52:50.861Z,-1.86
2023-01-20T01:55:19.123Z,-1.77
2023-01-20T01:57:47.303Z,-1.77
2023-01-20T02:00:14.149Z,-1.71
2023-01-20T02:02:44.111Z,-2.07
2023-01-20T02:05:13.670Z,-1.88
2023-01-20T02:07:42.435Z,-1.88
2023-01-20T02:10:09.600Z,-1.99
2023-01-20T02:12:36.289Z,-2.01
2023-01-20T02:15:04.089Z,-1.89
2023-01-20T02:17:35.600Z,-1.73
2023-01-20T02:20:24.170Z,-1.58
2023-01-20T02:23:10.592Z,-1.70
2023-01-20T02:25:55.467Z,-1.79
2023-01-20T02:28:43.881Z,-1.73
2023-01-20T02:31:40.185Z,-1.64
2023-01-20T02:34:12.759Z,-1.82
2023-01-20T02:36:39.332Z,-1.74
2023-01-20T02:39:27.654Z,-1.59
2023-01-20T02:42:02.503Z,-1.64
2023-01-20T02:44:35.469Z,-1.93
2023-01-20T02:47:20.223Z,-1.63
2023-01-20T02:49:59.321Z,-1.80
2023-01-20T02:52:32.668Z,-1.85
2023-01-20T02:55:04.958Z,-1.74
2023-01-20T02:57:40.278Z,-1.60
2023-01-20T03:00:17.203Z,-1.59
2023-01-20T03:02:48.335Z,-1.58
2023-01-20T03:05:19.530Z,-1.66
2023-01-20T03:07:47.958Z,-1.79
2023-01-20T03:10:18.820Z,-1.62
2023-01-20T03:13:31.352Z,-1.54
2023-01-20T03:16:04.579Z,-1.47
2023-01-20T03:18:34.027Z,-1.44
2023-01-20T03:21:02.628Z,-1.44
2023-01-20T03:23:33.487Z,-1.33
2023-01-20T03:26:03.116Z,-1.22
2023-01-20T03:28:29.715Z,-1.15
2023-01-20T03:30:58.593Z,-1.32
2023-01-20T03:33:26.324Z,-1.40
2023-01-20T03:35:54.430Z,-1.37
2023-01-20T03:38:21.380Z,-1.35
2023-01-20T03:41:01.873Z,-1.28
2023-01-20T03:43:45.509Z,-1.29
2023-01-20T03:46:24.521Z,-1.28
2023-01-20T03:49:02.551Z,-1.18
2023-01-20T03:51:42.831Z,-1.25
2023-01-20T03:54:15.358Z,-1.29
2023-01-20T03:57:04.379Z,-1.16
2023-01-20T03:59:35.294Z,-1.22
2023-01-20T04:02:07.758Z,-1.14
2023-01-20T04:04:40.028Z,-0.99
2023-01-20T04:07:11.148Z,-1.24
2023-01-20T04:09:43.484Z,-1.24
2023-01-20T04:12:10.332Z,-1.51
2023-01-20T04:14:37.419Z,-1.47
2023-01-20T04:17:05.153Z,-1.36
2023-01-20T04:19:31.809Z,-1.26
2023-01-20T04:21:58.351Z,-1.11
2023-01-20T04:24:36.295Z,-0.86
2023-01-20T04:27:02.903Z,-0.96
2023-01-20T04:29:29.567Z,-0.99
2023-01-20T04:32:00.792Z,-0.76
2023-01-20T04:34:27.558Z,-0.69
2023-01-20T04:36:54.333Z,-0.70
2023-01-20T04:39:21.196Z,-0.63
2023-01-20T04:41:48.526Z,-0.54
2023-01-20T04:44:15.233Z,-0.51
2023-01-20T04:46:41.938Z,-0.47
2023-01-20T04:49:10.275Z,-0.44
2023-01-20T04:51:37.258Z,-0.44
2023-01-20T04:54:03.939Z,-0.43
2023-01-20T04:56:30.689Z,-0.57
2023-01-20T04:58:57.401Z,-0.46
2023-01-20T05:01:24.180Z,-0.35
2023-01-20T05:03:50.873Z,-0.38
2023-01-20T05:06:18.933Z,-0.35
2023-01-20T05:08:45.553Z,-0.32
2023-01-20T05:11:12.240Z,-0.26
2023-01-20T05:13:40.216Z,-0.29
2023-01-20T05:16:08.796Z,-0.29
2023-01-20T05:18:36.043Z,-0.31
2023-01-20T05:21:04.452Z,-0.23
2023-01-20T05:23:31.091Z,-0.15
2023-01-20T05:25:57.674Z,-0.17
2023-01-20T05:28:24.463Z,-0.15
2023-01-20T05:30:52.047Z,-0.12
2023-01-20T05:33:18.725Z,-0.06
2023-01-20T05:35:45.403Z,-0.04
2023-01-20T05:38:12.091Z,-0.01
2023-01-20T05:40:38.735Z,0.00
2023-01-20T05:43:05.396Z,-0.01
2023-01-20T05:45:32.515Z,0.01
2023-01-20T05:48:00.573Z,0.02
2023-01-20T05:50:28.107Z,-0.01
2023-01-20T05:52:54.815Z,0.02
2023-01-20T05:55:21.675Z,-0.10
2023-01-20T05:57:48.371Z,-0.08
2023-01-20T06:00:15.295Z,0.00
2023-01-20T06:02:42.167Z,-0.06
2023-01-20T06:05:08.968Z,-0.01
2023-01-20T06:07:35.685Z,0.06
2023-01-20T06:10:02.670Z,0.05
2023-01-20T06:12:29.262Z,0.01
2023-01-20T06:14:55.875Z,0.06
2023-01-20T06:17:22.514Z,0.08
2023-01-20T06:19:49.170Z,0.03
2023-01-20T06:22:15.953Z,-0.02
2023-01-20T06:24:42.588Z,0.01
2023-01-20T06:27:09.765Z,-0.08
2023-01-20T06:29:36.431Z,0.04
2023-01-20T06:32:03.108Z,-0.10
2023-01-20T06:34:29.750Z,-0.12
2023-01-20T06:36:56.701Z,-0.08
2023-01-20T06:39:23.346Z,-0.05
2023-01-20T06:41:49.888Z,0.01
2023-01-20T06:44:17.383Z,-0.03
2023-01-20T06:46:44.880Z,-0.14
2023-01-20T06:49:12.951Z,-0.25
2023-01-20T06:51:39.547Z,-0.17
2023-01-20T06:54:06.234Z,-0.16
2023-01-20T06:56:32.937Z,-0.34
2023-01-20T06:58:59.516Z,-0.17
2023-01-20T07:01:30.831Z,-0.17
2023-01-20T07:03:58.399Z,-0.03
2023-01-20T07:06:24.944Z,-0.01
2023-01-20T07:08:51.989Z,0.03
2023-01-20T07:11:18.701Z,-0.06
2023-01-20T07:13:45.463Z,-0.24
2023-01-20T07:16:15.391Z,-0.12
2023-01-20T07:18:43.279Z,-0.06
2023-01-20T07:21:12.291Z,0.08
2023-01-20T07:23:38.945Z,0.04
2023-01-20T07:26:08.369Z,0.13
2023-01-20T07:28:35.678Z,0.20
2023-01-20T07:31:06.289Z,0.09
2023-01-20T07:33:33.565Z,0.24
2023-01-20T07:36:01.230Z,0.16
2023-01-20T07:38:28.551Z,0.08
2023-01-20T07:40:59.418Z,0.22
2023-01-20T07:43:26.530Z,0.04
2023-01-20T07:46:01.300Z,0.22
2023-01-20T07:48:29.908Z,0.11
2023-01-20T07:51:06.528Z,0.06
2023-01-20T07:53:35.789Z,-0.01
2023-01-20T07:56:14.718Z,-0.06
2023-01-20T07:58:42.087Z,-0.21
2023-01-20T08:01:09.834Z,-0.27
2023-01-20T08:03:36.746Z,-0.05
2023-01-20T08:06:05.009Z,-0.14
2023-01-20T08:08:33.034Z,-0.20
2023-01-20T08:11:01.473Z,-0.12
2023-01-20T08:13:29.694Z,-0.07
2023-01-20T08:16:00.352Z,0.03
2023-01-20T08:18:27.739Z,-0.09
2023-01-20T08:20:54.324Z,-0.13
2023-01-20T08:23:20.943Z,-0.06
2023-01-20T08:25:47.527Z,-0.05
2023-01-20T08:28:14.138Z,0.17
2023-01-20T08:30:40.840Z,0.13
2023-01-20T08:33:07.484Z,0.15
2023-01-20T08:35:36.410Z,0.31
2023-01-20T08:38:03.594Z,0.40
2023-01-20T08:40:30.222Z,0.35
2023-01-20T08:42:56.801Z,0.47
2023-01-20T08:45:23.951Z,0.44
2023-01-20T08:47:50.585Z,0.56
2023-01-20T08:50:17.334Z,0.58
2023-01-20T08:52:44.077Z,0.67
2023-01-20T08:55:11.994Z,0.43
2023-01-20T08:57:38.705Z,0.63
2023-01-20T09:00:07.932Z,0.64
2023-01-20T09:02:34.554Z,0.69
2023-01-20T09:05:01.179Z,0.71
2023-01-20T09:07:27.809Z,0.88
2023-01-20T09:09:54.382Z,0.80
2023-01-20T09:12:21.046Z,1.03
2023-01-20T09:14:47.706Z,1.07
2023-01-20T09:17:14.838Z,1.01
2023-01-20T09:19:41.501Z,1.19
2023-01-20T09:22:08.250Z,1.33
2023-01-20T09:24:34.843Z,1.48
2023-01-20T09:27:01.691Z,1.53
2023-01-20T09:29:28.463Z,1.08
2023-01-20T09:31:59.139Z,1.14
2023-01-20T09:34:29.565Z,1.38
2023-01-20T09:37:21.482Z,1.50
2023-01-20T09:40:07.360Z,1.38
2023-01-20T09:43:16.894Z,1.46
2023-01-20T09:45:57.412Z,1.65
2023-01-20T09:49:07.327Z,1.18
2023-01-20T09:52:20.595Z,0.89
2023-01-20T09:55:14.175Z,0.63
2023-01-20T09:57:43.336Z,0.46
2023-01-20T10:00:20.558Z,0.14
2023-01-20T10:02:52.288Z,0.14
2023-01-20T10:05:24.449Z,0.27
2023-01-20T10:07:58.714Z,0.34
2023-01-20T10:10:31.040Z,0.67
2023-01-20T10:13:31.587Z,1.13
2023-01-20T10:16:02.929Z,1.07
2023-01-20T10:18:43.529Z,1.08
2023-01-20T10:21:36.049Z,0.86
2023-01-20T10:24:28.415Z,1.16
2023-01-20T10:27:01.916Z,0.98
2023-01-20T10:29:34.148Z,1.21
2023-01-20T10:32:03.139Z,1.69
2023-01-20T10:34:56.400Z,1.95
2023-01-20T10:37:23.720Z,2.08
2023-01-20T10:39:57.000Z,1.93
2023-01-20T10:42:24.947Z,1.87
2023-01-20T10:44:52.639Z,1.93
2023-01-20T10:47:41.023Z,2.21
2023-01-20T10:50:47.007Z,2.01
2023-01-20T10:53:38.278Z,2.11
2023-01-20T10:56:28.863Z,2.21
2023-01-20T10:58:56.825Z,2.26
2023-01-20T11:01:24.211Z,2.01
2023-01-20T11:03:51.578Z,2.08
2023-01-20T11:06:25.383Z,2.02
2023-01-20T11:08:52.843Z,2.22
2023-01-20T11:11:24.524Z,2.24
2023-01-20T11:13:52.880Z,2.43
2023-01-20T11:16:24.805Z,2.25
2023-01-20T11:18:55.763Z,2.22
2023-01-20T11:21:26.722Z,2.26
2023-01-20T11:23:57.683Z,2.33
2023-01-20T11:26:28.531Z,2.25
2023-01-20T11:29:02.946Z,2.26
2023-01-20T11:31:54.249Z,2.02
2023-01-20T11:34:27.685Z,2.32
2023-01-20T11:37:03.155Z,2.01
2023-01-20T11:39:35.313Z,2.13
2023-01-20T11:42:20.224Z,2.14
2023-01-20T11:44:47.735Z,1.96
2023-01-20T11:47:20.118Z,2.00
2023-01-20T11:49:48.382Z,1.89
2023-01-20T11:52:23.743Z,2.11
2023-01-20T11:55:12.564Z,2.27
2023-01-20T11:58:01.929Z,2.13
2023-01-20T12:00:39.045Z,2.10
2023-01-20T12:03:27.507Z,1.96
2023-01-20T12:06:03.333Z,2.02
2023-01-20T12:08:51.626Z,2.24
2023-01-20T12:11:30.346Z,2.22
2023-01-20T12:14:20.171Z,2.18
2023-01-20T12:16:52.841Z,2.13
2023-01-20T12:19:22.437Z,2.36
2023-01-20T12:21:56.201Z,2.27
2023-01-20T12:24:57.373Z,2.47
2023-01-20T12:27:27.688Z,1.96
2023-01-20T12:30:00.340Z,2.31
2023-01-20T12:32:29.242Z,2.11
2023-01-20T12:34:55.862Z,2.12
2023-01-20T12:37:28.545Z,2.29
2023-01-20T12:40:16.948Z,2.28
2023-01-20T12:43:01.701Z,2.28
2023-01-20T12:46:07.295Z,2.54
2023-01-20T12:48:39.699Z,2.56
2023-01-20T12:51:15.271Z,2.60
2023-01-20T12:53:54.154Z,2.46
2023-01-20T12:56:42.836Z,2.72
2023-01-20T12:59:38.435Z,2.79
2023-01-20T13:02:18.605Z,2.87
2023-01-20T13:05:25.091Z,2.72
2023-01-20T13:08:22.626Z,2.80
2023-01-20T13:10:59.395Z,2.93
2023-01-20T13:13:32.781Z,3.00
2023-01-20T13:16:29.153Z,2.87
2023-01-20T13:19:12.914Z,2.12
2023-01-20T13:21:41.979Z,2.56
2023-01-20T13:24:29.239Z,2.80
2023-01-20T13:27:00.555Z,2.92
2023-01-20T13:29:36.305Z,2.90
2023-01-20T13:32:04.256Z,2.98
2023-01-20T13:34:33.925Z,2.89
2023-01-20T13:37:12.136Z,2.95
2023-01-20T13:39:48.235Z,2.68
2023-01-20T13:42:39.254Z,2.31
2023-01-20T13:45:11.631Z,1.85
2023-01-20T13:47:53.299Z,1.84
2023-01-20T13:50:37.346Z,2.36
2023-01-20T13:53:09.921Z,2.54
2023-01-20T13:55:45.273Z,2.57
2023-01-20T13:58:16.916Z,2.55
2023-01-20T14:00:44.050Z,2.39
2023-01-20T14:03:19.816Z,2.19
2023-01-20T14:05:52.021Z,2.26
2023-01-20T14:08:20.039Z,2.44
2023-01-20T14:10:47.366Z,2.27
2023-01-20T14:13:24.796Z,2.32
2023-01-20T14:15:54.330Z,2.08
2023-01-20T14:18:26.311Z,2.15
2023-01-20T14:21:19.055Z,2.00
2023-01-20T14:23:49.084Z,2.05
2023-01-20T14:26:21.417Z,2.12
2023-01-20T14:28:55.447Z,2.34
2023-01-20T14:31:33.190Z,2.14
2023-01-20T14:34:18.572Z,2.23
2023-01-20T14:36:46.166Z,1.66
2023-01-20T14:39:21.291Z,1.54
2023-01-20T14:41:57.388Z,1.76
2023-01-20T14:44:30.125Z,1.47
2023-01-20T14:46:59.353Z,1.30
2023-01-20T14:49:46.380Z,1.78
2023-01-20T14:52:26.413Z,1.70
2023-01-20T14:54:56.311Z,2.11
2023-01-20T14:57:28.101Z,1.94
2023-01-20T15:00:03.644Z,1.37
2023-01-20T15:02:32.636Z,1.12
2023-01-20T15:04:59.611Z,0.86
2023-01-20T15:07:26.788Z,0.40
2023-01-20T15:10:02.619Z,0.17
2023-01-20T15:12:39.654Z,0.16
2023-01-20T15:15:13.686Z,-0.11
2023-01-20T15:18:06.076Z,-0.06
2023-01-20T15:20:34.401Z,0.18
2023-01-20T15:23:01.525Z,0.34
2023-01-20T15:25:29.298Z,0.66
2023-01-20T15:27:57.220Z,0.68
2023-01-20T15:30:27.536Z,1.02
2023-01-20T15:32:55.273Z,1.25
2023-01-20T15:35:25.959Z,1.37
2023-01-20T15:37:53.486Z,1.49
2023-01-20T15:40:24.976Z,1.35
2023-01-20T15:42:53.475Z,1.56
2023-01-20T15:45:20.252Z,1.76
2023-01-20T15:47:47.532Z,1.70
2023-01-20T15:50:23.267Z,1.76
2023-01-20T15:52:50.464Z,1.78
2023-01-20T15:55:18.951Z,1.85
2023-01-20T15:57:49.662Z,1.70
2023-01-20T16:00:19.275Z,1.67
2023-01-20T16:02:46.052Z,1.72
2023-01-20T16:05:17.317Z,1.85
2023-01-20T16:07:44.557Z,1.97
2023-01-20T16:10:16.445Z,1.90
2023-01-20T16:12:45.455Z,1.97
2023-01-20T16:15:17.456Z,1.94
2023-01-20T16:17:44.064Z,1.93
2023-01-20T16:20:18.847Z,2.05
2023-01-20T16:22:45.450Z,1.98
2023-01-20T16:25:12.165Z,2.05
2023-01-20T16:27:38.826Z,2.16
2023-01-20T16:30:06.200Z,2.19
2023-01-20T16:32:32.785Z,2.20
2023-01-20T16:34:59.386Z,2.17
2023-01-20T16:37:25.966Z,2.09
2023-01-20T16:39:52.635Z,2.15
2023-01-20T16:42:19.220Z,2.21
2023-01-20T16:44:45.853Z,2.15
2023-01-20T16:47:12.439Z,2.10
2023-01-20T16:49:39.054Z,2.09
2023-01-20T16:52:06.186Z,2.14
2023-01-20T16:54:32.915Z,2.17
2023-01-20T16:56:59.530Z,2.10
2023-01-20T16:59:26.120Z,2.04
2023-01-20T17:01:52.783Z,2.11
2023-01-20T17:04:19.456Z,2.19
2023-01-20T17:06:46.093Z,2.16
2023-01-20T17:09:14.017Z,2.20
2023-01-20T17:11:40.763Z,2.28
2023-01-20T17:14:09.640Z,2.13
2023-01-20T17:16:37.441Z,2.00
2023-01-20T17:19:05.643Z,1.82
2023-01-20T17:21:34.358Z,1.65
2023-01-20T17:24:03.319Z,1.92
2023-01-20T17:26:30.764Z,1.92
2023-01-20T17:29:02.568Z,1.89
2023-01-20T17:31:31.869Z,1.77
2023-01-20T17:33:58.758Z,1.68
2023-01-20T17:36:25.579Z,0.75
2023-01-20T17:38:52.189Z,0.89
2023-01-20T17:41:18.793Z,1.08
2023-01-20T17:43:46.671Z,1.03
2023-01-20T17:46:13.325Z,0.37
2023-01-20T17:48:40.092Z,-0.42
2023-01-20T17:51:27.796Z,-0.66
2023-01-20T17:53:54.719Z,-0.70
2023-01-20T17:56:22.595Z,-0.74
2023-01-20T17:58:50.119Z,-0.86
2023-01-20T18:01:22.390Z,-0.22
2023-01-20T18:03:51.522Z,0.13
2023-01-20T18:06:20.007Z,0.04
2023-01-20T18:08:52.116Z,0.01
2023-01-20T18:11:20.429Z,0.02
2023-01-20T18:13:48.203Z,-0.28
2023-01-20T18:16:16.337Z,-0.08
2023-01-20T18:18:43.920Z,-0.45
2023-01-20T18:21:16.361Z,-0.77
2023-01-20T18:23:44.273Z,-0.78
2023-01-20T18:26:13.886Z,-0.40
2023-01-20T18:28:41.870Z,-0.52
2023-01-20T18:31:12.467Z,-0.23
2023-01-20T18:33:44.659Z,0.29
2023-01-20T18:36:14.870Z,0.41
2023-01-20T18:38:43.558Z,0.54
2023-01-20T18:41:11.129Z,0.51
2023-01-20T18:43:38.829Z,0.22
2023-01-20T18:46:06.868Z,0.43
2023-01-20T18:48:37.075Z,0.59
2023-01-20T18:51:03.861Z,0.63
2023-01-20T18:53:31.185Z,0.80
2023-01-20T18:56:06.764Z,0.96
2023-01-20T18:58:34.604Z,0.98
2023-01-20T19:01:06.148Z,0.95
2023-01-20T19:03:33.477Z,1.05
2023-01-20T19:06:08.564Z,1.08
2023-01-20T19:08:35.190Z,0.31
2023-01-20T19:11:03.795Z,0.00
2023-01-20T19:13:30.423Z,-0.05
2023-01-20T19:15:57.297Z,0.12
2023-01-20T19:18:24.348Z,0.56
2023-01-20T19:20:51.539Z,0.70
2023-01-20T19:23:18.940Z,0.95
2023-01-20T19:25:45.851Z,1.02
2023-01-20T19:28:14.353Z,1.16
2023-01-20T19:30:41.583Z,1.18
2023-01-20T19:33:12.099Z,1.25
2023-01-20T19:35:41.819Z,1.21
2023-01-20T19:38:08.622Z,1.28
2023-01-20T19:40:35.219Z,1.25
2023-01-20T19:43:01.891Z,1.37
2023-01-20T19:45:40.291Z,1.31
2023-01-20T19:48:11.301Z,1.38
2023-01-20T19:50:37.905Z,1.44
2023-01-20T19:53:04.547Z,1.41
2023-01-20T19:55:31.128Z,1.48
2023-01-20T19:57:57.704Z,1.49
2023-01-20T20:00:24.376Z,1.46
2023-01-20T20:02:54.353Z,1.49
2023-01-20T20:05:20.993Z,1.53
2023-01-20T20:07:47.693Z,1.19
2023-01-20T20:10:17.670Z,1.42
2023-01-20T20:12:44.682Z,1.44
2023-01-20T20:15:11.469Z,1.48
2023-01-20T20:17:38.124Z,1.35
2023-01-20T20:20:05.455Z,1.40
2023-01-20T20:22:32.041Z,1.50
2023-01-20T20:24:58.668Z,1.55
2023-01-20T20:27:25.276Z,1.59
2023-01-20T20:29:51.941Z,1.66
2023-01-20T20:32:18.500Z,1.59
2023-01-20T20:34:45.238Z,1.72
2023-01-20T20:37:11.839Z,1.58
2023-01-20T20:39:38.440Z,1.57
2023-01-20T20:42:05.085Z,1.67
2023-01-20T20:44:31.647Z,1.69
2023-01-20T20:46:58.360Z,1.68
2023-01-20T20:49:24.978Z,1.72
2023-01-20T20:51:51.622Z,1.67
2023-01-20T20:54:19.222Z,1.68
2023-01-20T20:56:45.993Z,1.71
2023-01-20T20:59:12.676Z,1.74
2023-01-20T21:01:39.580Z,1.66
2023-01-20T21:04:06.236Z,1.55
2023-01-20T21:06:33.887Z,1.38
2023-01-20T21:09:00.804Z,1.34
2023-01-20T21:11:27.850Z,1.42
2023-01-20T21:13:54.792Z,1.45
2023-01-20T21:16:23.260Z,1.44
2023-01-20T21:18:52.230Z,1.30
2023-01-20T21:21:21.928Z,1.40
2023-01-20T21:23:53.937Z,1.47
2023-01-20T21:26:21.501Z,1.39
2023-01-20T21:28:51.044Z,1.44
2023-01-20T21:31:24.625Z,1.42
2023-01-20T21:33:53.939Z,1.35
2023-01-20T21:36:21.435Z,1.41
2023-01-20T21:38:48.056Z,1.36
2023-01-20T21:41:15.343Z,1.26
2023-01-20T21:44:02.767Z,1.37
2023-01-20T21:46:39.031Z,1.28
2023-01-20T21:49:25.174Z,1.36
2023-01-20T21:52:10.472Z,1.22
2023-01-20T21:54:39.450Z,1.36
2023-01-20T21:57:06.058Z,1.46
2023-01-20T21:59:32.721Z,1.46
2023-01-20T22:01:59.380Z,1.19
2023-01-20T22:04:26.082Z,1.36
2023-01-20T22:06:52.663Z,1.48
2023-01-20T22:09:19.251Z,1.49
2023-01-20T22:11:45.885Z,1.53
2023-01-20T22:14:12.645Z,1.47
2023-01-20T22:16:39.306Z,1.28
2023-01-20T22:19:06.141Z,1.19
2023-01-20T22:21:33.026Z,1.18
2023-01-20T22:24:01.566Z,1.15
2023-01-20T22:26:28.173Z,1.05
2023-01-20T22:28:54.759Z,0.94
2023-01-20T22:31:24.079Z,1.00
2023-01-20T22:33:55.104Z,0.98
2023-01-20T22:36:22.749Z,0.96
2023-01-20T22:38:51.333Z,1.00
2023-01-20T22:41:18.972Z,1.04
2023-01-20T22:43:47.952Z,0.91
2023-01-20T22:46:16.438Z,1.08
2023-01-20T22:48:43.451Z,1.05
2023-01-20T22:51:15.983Z,0.92
2023-01-20T22:53:43.411Z,0.87
2023-01-20T22:56:13.812Z,0.81
2023-01-20T22:58:41.159Z,0.91
2023-01-20T23:01:22.409Z,0.79
2023-01-20T23:03:53.647Z,0.88
2023-01-20T23:06:20.232Z,1.01
2023-01-20T23:08:46.830Z,1.13
2023-01-20T23:11:15.703Z,1.29
2023-01-20T23:13:42.660Z,1.40
2023-01-20T23:16:15.545Z,1.29
2023-01-20T23:18:42.471Z,1.32
2023-01-20T23:21:09.462Z,1.23
2023-01-20T23:23:36.884Z,1.24
2023-01-20T23:26:06.092Z,1.27
2023-01-20T23:28:33.125Z,1.50
2023-01-20T23:31:05.043Z,1.48
2023-01-20T23:33:32.931Z,1.28
2023-01-20T23:36:14.454Z,1.28
2023-01-20T23:38:41.736Z,1.36
2023-01-20T23:41:08.979Z,1.24
2023-01-20T23:43:35.651Z,1.35
2023-01-20T23:46:04.982Z,1.47
2023-01-20T23:48:32.379Z,1.33
2023-01-20T23:51:02.151Z,1.34
2023-01-20T23:53:30.776Z,1.22
2023-01-20T23:56:06.178Z,1.35
2023-01-20T23:58:32.911Z,1.18
